Main page
METAR-TAF:

METAR-TAF

Airports :

Baghdad, Iraq

Baghdad International Airport

latitude: 33-15-45N, longitude: 44-14-04E, elevation: 35 m

Current weather observation

The report was made 27 minutes ago, at 04:30 UTC
Wind 7 kt from the North/Northwest
Temperature 30°C
Humidity 49%
Pressure 1005 hPa
Visibility 10 km or more
no clouds below 1500 m and no cumulonimbus

METAR: ORBI 240430Z 33007KT CAVOK 30/18 Q1005

Time: 07:57 (04:57 UTC)

Forecast

The report was made 5 hours and 57 minutes ago, at 23:00 UTC
Forecast valid from 24 at 00 UTC to 24 at 24 UTC
Wind 10 kt from the Northwest
Visibility 10 km or more
no clouds below 1500 m and no cumulonimbus

TAF: ORBI 232300Z 2400/2424 31010KT CAVOK

Weather observations and forecasts of more than 4000 airports (METAR and TAF reports).

The available stations are represented by yellow and red dots on the map.

Hover mouse over dot to see the name of the station.

Then click to see weather observations and forecasts.

To change the map : click on the green buttons with a black cross to zoom in, on the green button with a dash to zoom out, or on the green arrows for adjacent maps.


METAR-TAF: